sensor_id;sensor_type;location;lat;lon;timestamp;temperature;humidity
16289;DHT22;26089;43.538;5.250;2022-12-11T00:01:21;1.50;99.90
16289;DHT22;26089;43.538;5.250;2022-12-11T00:03:48;1.70;99.90
16289;DHT22;26089;43.538;5.250;2022-12-11T00:06:18;2.50;99.90
16289;DHT22;26089;43.538;5.250;2022-12-11T00:08:49;1.20;99.90
16289;DHT22;26089;43.538;5.250;2022-12-11T00:11:16;1.70;99.90
16289;DHT22;26089;43.538;5.250;2022-12-11T00:13:43;1.60;99.90
16289;DHT22;26089;43.538;5.250;2022-12-11T00:16:11;1.60;99.90
16289;DHT22;26089;43.538;5.250;2022-12-11T00:18:38;1.60;99.90
16289;DHT22;26089;43.538;5.250;2022-12-11T00:21:07;1.60;99.90
16289;DHT22;26089;43.538;5.250;2022-12-11T00:23:35;1.90;99.90
16289;DHT22;26089;43.538;5.250;2022-12-11T00:26:06;2.20;99.90
16289;DHT22;26089;43.538;5.250;2022-12-11T00:28:34;2.10;99.90
16289;DHT22;26089;43.538;5.250;2022-12-11T00:31:03;1.60;99.90
16289;DHT22;26089;43.538;5.250;2022-12-11T00:33:30;1.60;99.90
16289;DHT22;26089;43.538;5.250;2022-12-11T00:35:57;1.60;99.90
16289;DHT22;26089;43.538;5.250;2022-12-11T00:38:24;2.90;99.90
16289;DHT22;26089;43.538;5.250;2022-12-11T00:40:52;1.60;99.90
16289;DHT22;26089;43.538;5.250;2022-12-11T00:43:20;1.70;99.90
16289;DHT22;26089;43.538;5.250;2022-12-11T00:45:47;1.10;99.90
16289;DHT22;26089;43.538;5.250;2022-12-11T00:48:14;1.60;99.90
16289;DHT22;26089;43.538;5.250;2022-12-11T00:50:41;1.60;99.90
16289;DHT22;26089;43.538;5.250;2022-12-11T00:53:08;1.90;99.90
16289;DHT22;26089;43.538;5.250;2022-12-11T00:55:37;1.50;99.90
16289;DHT22;26089;43.538;5.250;2022-12-11T00:58:05;1.30;99.90
16289;DHT22;26089;43.538;5.250;2022-12-11T01:00:33;1.50;99.90
16289;DHT22;26089;43.538;5.250;2022-12-11T01:03:00;1.50;99.90
16289;DHT22;26089;43.538;5.250;2022-12-11T01:05:27;1.40;99.90
16289;DHT22;26089;43.538;5.250;2022-12-11T01:07:54;1.40;99.90
16289;DHT22;26089;43.538;5.250;2022-12-11T01:10:21;1.40;99.90
16289;DHT22;26089;43.538;5.250;2022-12-11T01:12:53;1.50;99.90
16289;DHT22;26089;43.538;5.250;2022-12-11T01:15:21;1.50;99.90
16289;DHT22;26089;43.538;5.250;2022-12-11T01:17:50;1.50;99.90
16289;DHT22;26089;43.538;5.250;2022-12-11T01:20:18;1.50;99.90
16289;DHT22;26089;43.538;5.250;2022-12-11T01:22:45;1.50;99.90
16289;DHT22;26089;43.538;5.250;2022-12-11T01:25:12;2.20;99.90
16289;DHT22;26089;43.538;5.250;2022-12-11T01:27:40;2.20;99.90
16289;DHT22;26089;43.538;5.250;2022-12-11T01:30:08;0.50;99.90
16289;DHT22;26089;43.538;5.250;2022-12-11T01:32:35;2.30;99.90
16289;DHT22;26089;43.538;5.250;2022-12-11T01:35:05;2.10;99.90
16289;DHT22;26089;43.538;5.250;2022-12-11T01:37:34;1.30;99.90
16289;DHT22;26089;43.538;5.250;2022-12-11T01:40:01;1.30;99.90
16289;DHT22;26089;43.538;5.250;2022-12-11T01:42:29;1.30;99.90
16289;DHT22;26089;43.538;5.250;2022-12-11T01:45:30;1.30;99.90
16289;DHT22;26089;43.538;5.250;2022-12-11T01:48:05;1.30;99.90
16289;DHT22;26089;43.538;5.250;2022-12-11T01:50:38;1.30;99.90
16289;DHT22;26089;43.538;5.250;2022-12-11T01:53:08;1.20;99.90
16289;DHT22;26089;43.538;5.250;2022-12-11T01:55:37;1.20;99.90
16289;DHT22;26089;43.538;5.250;2022-12-11T01:58:05;1.20;99.90
16289;DHT22;26089;43.538;5.250;2022-12-11T02:00:33;0.70;99.90
16289;DHT22;26089;43.538;5.250;2022-12-11T02:03:00;1.30;99.90
16289;DHT22;26089;43.538;5.250;2022-12-11T02:05:27;1.30;99.90
16289;DHT22;26089;43.538;5.250;2022-12-11T02:07:58;1.40;99.90
16289;DHT22;26089;43.538;5.250;2022-12-11T02:10:32;1.20;99.90
16289;DHT22;26089;43.538;5.250;2022-12-11T02:13:10;1.30;99.90
16289;DHT22;26089;43.538;5.250;2022-12-11T02:15:43;1.30;99.90
16289;DHT22;26089;43.538;5.250;2022-12-11T02:18:18;0.90;99.90
16289;DHT22;26089;43.538;5.250;2022-12-11T02:20:53;1.30;99.90
16289;DHT22;26089;43.538;5.250;2022-12-11T02:23:52;1.30;99.90
16289;DHT22;26089;43.538;5.250;2022-12-11T02:26:33;1.30;99.90
16289;DHT22;26089;43.538;5.250;2022-12-11T02:29:05;1.90;99.90
16289;DHT22;26089;43.538;5.250;2022-12-11T02:31:37;1.10;99.90
16289;DHT22;26089;43.538;5.250;2022-12-11T02:34:08;1.20;99.90
16289;DHT22;26089;43.538;5.250;2022-12-11T02:36:39;1.50;99.90
16289;DHT22;26089;43.538;5.250;2022-12-11T02:39:10;1.10;99.90
16289;DHT22;26089;43.538;5.250;2022-12-11T02:41:39;0.60;99.90
16289;DHT22;26089;43.538;5.250;2022-12-11T02:44:10;1.20;99.90
16289;DHT22;26089;43.538;5.250;2022-12-11T02:46:38;1.30;99.90
16289;DHT22;26089;43.538;5.250;2022-12-11T02:49:07;1.10;99.90
16289;DHT22;26089;43.538;5.250;2022-12-11T02:51:41;1.10;99.90
16289;DHT22;26089;43.538;5.250;2022-12-11T02:54:12;1.10;99.90
16289;DHT22;26089;43.538;5.250;2022-12-11T02:56:43;1.70;99.90
16289;DHT22;26089;43.538;5.250;2022-12-11T02:59:17;1.20;99.90
16289;DHT22;26089;43.538;5.250;2022-12-11T03:01:45;1.20;99.90
16289;DHT22;26089;43.538;5.250;2022-12-11T03:04:12;1.10;99.90
16289;DHT22;26089;43.538;5.250;2022-12-11T03:06:43;1.00;99.90
16289;DHT22;26089;43.538;5.250;2022-12-11T03:09:11;0.90;99.90
16289;DHT22;26089;43.538;5.250;2022-12-11T03:11:38;1.00;99.90
16289;DHT22;26089;43.538;5.250;2022-12-11T03:14:06;2.20;99.90
16289;DHT22;26089;43.538;5.250;2022-12-11T03:16:37;1.00;99.90
16289;DHT22;26089;43.538;5.250;2022-12-11T03:19:10;0.40;99.90
16289;DHT22;26089;43.538;5.250;2022-12-11T03:21:44;0.90;99.90
16289;DHT22;26089;43.538;5.250;2022-12-11T03:24:15;1.70;99.90
16289;DHT22;26089;43.538;5.250;2022-12-11T03:26:49;0.90;99.90
16289;DHT22;26089;43.538;5.250;2022-12-11T03:29:20;2.00;99.90
16289;DHT22;26089;43.538;5.250;2022-12-11T03:31:53;0.90;99.90
16289;DHT22;26089;43.538;5.250;2022-12-11T03:34:24;0.80;99.90
16289;DHT22;26089;43.538;5.250;2022-12-11T03:36:55;0.80;99.90
16289;DHT22;26089;43.538;5.250;2022-12-11T03:39:25;0.90;99.90
16289;DHT22;26089;43.538;5.250;2022-12-11T03:41:55;0.70;99.90
16289;DHT22;26089;43.538;5.250;2022-12-11T03:44:23;0.80;99.90
16289;DHT22;26089;43.538;5.250;2022-12-11T03:46:54;0.80;99.90
16289;DHT22;26089;43.538;5.250;2022-12-11T03:49:26;1.10;99.90
16289;DHT22;26089;43.538;5.250;2022-12-11T03:51:55;0.80;99.90
16289;DHT22;26089;43.538;5.250;2022-12-11T03:54:24;0.70;99.90
16289;DHT22;26089;43.538;5.250;2022-12-11T03:56:54;0.70;99.90
16289;DHT22;26089;43.538;5.250;2022-12-11T03:59:22;0.70;99.90
16289;DHT22;26089;43.538;5.250;2022-12-11T04:01:50;0.60;99.90
16289;DHT22;26089;43.538;5.250;2022-12-11T04:04:18;0.50;99.90
16289;DHT22;26089;43.538;5.250;2022-12-11T04:06:45;0.50;99.90
16289;DHT22;26089;43.538;5.250;2022-12-11T04:09:12;0.40;99.90
16289;DHT22;26089;43.538;5.250;2022-12-11T04:11:39;0.50;99.90
16289;DHT22;26089;43.538;5.250;2022-12-11T04:14:09;0.50;99.90
16289;DHT22;26089;43.538;5.250;2022-12-11T04:16:55;0.30;99.90
16289;DHT22;26089;43.538;5.250;2022-12-11T04:19:25;0.10;99.90
16289;DHT22;26089;43.538;5.250;2022-12-11T04:22:09;0.30;99.90
16289;DHT22;26089;43.538;5.250;2022-12-11T04:24:53;0.40;99.90
16289;DHT22;26089;43.538;5.250;2022-12-11T04:27:20;0.50;99.90
16289;DHT22;26089;43.538;5.250;2022-12-11T04:30:08;0.60;99.90
16289;DHT22;26089;43.538;5.250;2022-12-11T04:32:36;1.00;99.90
16289;DHT22;26089;43.538;5.250;2022-12-11T04:35:05;0.70;99.90
16289;DHT22;26089;43.538;5.250;2022-12-11T04:37:34;2.00;99.90
16289;DHT22;26089;43.538;5.250;2022-12-11T04:40:01;0.80;99.90
16289;DHT22;26089;43.538;5.250;2022-12-11T04:42:29;0.70;99.90
16289;DHT22;26089;43.538;5.250;2022-12-11T04:44:56;0.50;99.90
16289;DHT22;26089;43.538;5.250;2022-12-11T04:47:23;0.60;99.90
16289;DHT22;26089;43.538;5.250;2022-12-11T04:49:50;0.70;99.90
16289;DHT22;26089;43.538;5.250;2022-12-11T04:52:18;0.40;99.90
16289;DHT22;26089;43.538;5.250;2022-12-11T04:54:45;0.40;99.90
16289;DHT22;26089;43.538;5.250;2022-12-11T04:57:12;1.20;99.90
16289;DHT22;26089;43.538;5.250;2022-12-11T04:59:40;0.30;99.90
16289;DHT22;26089;43.538;5.250;2022-12-11T05:02:07;0.30;99.90
16289;DHT22;26089;43.538;5.250;2022-12-11T05:04:34;0.80;99.90
16289;DHT22;26089;43.538;5.250;2022-12-11T05:07:01;-0.20;99.90
16289;DHT22;26089;43.538;5.250;2022-12-11T05:09:30;0.60;99.90
16289;DHT22;26089;43.538;5.250;2022-12-11T05:11:57;0.80;99.90
16289;DHT22;26089;43.538;5.250;2022-12-11T05:14:24;0.30;99.90
16289;DHT22;26089;43.538;5.250;2022-12-11T05:16:52;0.20;99.90
16289;DHT22;26089;43.538;5.250;2022-12-11T05:19:19;0.40;99.90
16289;DHT22;26089;43.538;5.250;2022-12-11T05:21:46;-0.60;99.90
16289;DHT22;26089;43.538;5.250;2022-12-11T05:24:13;0.20;99.90
16289;DHT22;26089;43.538;5.250;2022-12-11T05:26:41;0.30;99.90
16289;DHT22;26089;43.538;5.250;2022-12-11T05:29:08;1.20;99.90
16289;DHT22;26089;43.538;5.250;2022-12-11T05:31:35;0.10;99.90
16289;DHT22;26089;43.538;5.250;2022-12-11T05:34:02;1.50;99.90
16289;DHT22;26089;43.538;5.250;2022-12-11T05:36:31;0.20;99.90
16289;DHT22;26089;43.538;5.250;2022-12-11T05:38:59;0.30;99.90
16289;DHT22;26089;43.538;5.250;2022-12-11T05:41:31;0.20;99.90
16289;DHT22;26089;43.538;5.250;2022-12-11T05:43:59;0.70;99.90
16289;DHT22;26089;43.538;5.250;2022-12-11T05:46:28;1.40;99.90
16289;DHT22;26089;43.538;5.250;2022-12-11T05:48:57;0.80;99.90
16289;DHT22;26089;43.538;5.250;2022-12-11T05:51:25;1.40;99.90
16289;DHT22;26089;43.538;5.250;2022-12-11T05:53:54;0.10;99.90
16289;DHT22;26089;43.538;5.250;2022-12-11T05:56:22;0.40;99.90
16289;DHT22;26089;43.538;5.250;2022-12-11T05:58:51;0.00;99.90
16289;DHT22;26089;43.538;5.250;2022-12-11T06:01:21;0.10;99.90
16289;DHT22;26089;43.538;5.250;2022-12-11T06:03:49;0.10;99.90
16289;DHT22;26089;43.538;5.250;2022-12-11T06:06:16;0.10;99.90
16289;DHT22;26089;43.538;5.250;2022-12-11T06:08:43;0.10;99.90
16289;DHT22;26089;43.538;5.250;2022-12-11T06:11:11;-0.70;99.90
16289;DHT22;26089;43.538;5.250;2022-12-11T06:13:39;0.20;99.90
16289;DHT22;26089;43.538;5.250;2022-12-11T06:16:07;0.20;99.90
16289;DHT22;26089;43.538;5.250;2022-12-11T06:18:37;0.80;99.90
16289;DHT22;26089;43.538;5.250;2022-12-11T06:21:12;0.50;99.90
16289;DHT22;26089;43.538;5.250;2022-12-11T06:23:39;0.40;99.90
16289;DHT22;26089;43.538;5.250;2022-12-11T06:26:07;-0.10;99.90
16289;DHT22;26089;43.538;5.250;2022-12-11T06:28:34;0.40;99.90
16289;DHT22;26089;43.538;5.250;2022-12-11T06:31:02;0.40;99.90
16289;DHT22;26089;43.538;5.250;2022-12-11T06:33:29;0.50;99.90
16289;DHT22;26089;43.538;5.250;2022-12-11T06:36:00;0.50;99.90
16289;DHT22;26089;43.538;5.250;2022-12-11T06:38:27;0.40;99.90
16289;DHT22;26089;43.538;5.250;2022-12-11T06:40:54;0.50;99.90
16289;DHT22;26089;43.538;5.250;2022-12-11T06:43:22;0.40;99.90
16289;DHT22;26089;43.538;5.250;2022-12-11T06:45:49;0.50;99.90
16289;DHT22;26089;43.538;5.250;2022-12-11T06:48:17;0.50;99.90
16289;DHT22;26089;43.538;5.250;2022-12-11T06:50:44;-0.30;99.90
16289;DHT22;26089;43.538;5.250;2022-12-11T06:53:13;2.00;99.90
16289;DHT22;26089;43.538;5.250;2022-12-11T06:55:41;0.60;99.90
16289;DHT22;26089;43.538;5.250;2022-12-11T06:58:09;0.60;99.90
16289;DHT22;26089;43.538;5.250;2022-12-11T07:00:37;1.80;99.90
16289;DHT22;26089;43.538;5.250;2022-12-11T07:03:04;1.10;99.90
16289;DHT22;26089;43.538;5.250;2022-12-11T07:05:32;1.50;99.90
16289;DHT22;26089;43.538;5.250;2022-12-11T07:07:59;0.50;99.90
16289;DHT22;26089;43.538;5.250;2022-12-11T07:10:28;0.10;99.90
16289;DHT22;26089;43.538;5.250;2022-12-11T07:12:55;1.10;99.90
16289;DHT22;26089;43.538;5.250;2022-12-11T07:15:22;0.30;99.90
16289;DHT22;26089;43.538;5.250;2022-12-11T07:17:49;0.20;99.90
16289;DHT22;26089;43.538;5.250;2022-12-11T07:20:16;-0.80;99.90
16289;DHT22;26089;43.538;5.250;2022-12-11T07:22:43;0.20;99.90
16289;DHT22;26089;43.538;5.250;2022-12-11T07:25:10;0.30;99.90
16289;DHT22;26089;43.538;5.250;2022-12-11T07:27:39;0.80;99.90
16289;DHT22;26089;43.538;5.250;2022-12-11T07:30:08;0.30;99.90
16289;DHT22;26089;43.538;5.250;2022-12-11T07:32:36;0.40;99.90
16289;DHT22;26089;43.538;5.250;2022-12-11T07:35:03;0.40;99.90
16289;DHT22;26089;43.538;5.250;2022-12-11T07:37:31;0.40;99.90
16289;DHT22;26089;43.538;5.250;2022-12-11T07:39:58;0.50;99.90
16289;DHT22;26089;43.538;5.250;2022-12-11T07:42:25;0.30;99.90
16289;DHT22;26089;43.538;5.250;2022-12-11T07:44:53;0.60;99.90
16289;DHT22;26089;43.538;5.250;2022-12-11T07:47:20;0.70;99.90
16289;DHT22;26089;43.538;5.250;2022-12-11T07:49:48;0.50;99.90
16289;DHT22;26089;43.538;5.250;2022-12-11T07:52:15;0.50;99.90
16289;DHT22;26089;43.538;5.250;2022-12-11T07:54:42;1.00;99.90
16289;DHT22;26089;43.538;5.250;2022-12-11T07:57:09;0.80;99.90
16289;DHT22;26089;43.538;5.250;2022-12-11T07:59:36;1.00;99.90
16289;DHT22;26089;43.538;5.250;2022-12-11T08:02:04;1.20;99.90
16289;DHT22;26089;43.538;5.250;2022-12-11T08:04:31;2.20;99.90
16289;DHT22;26089;43.538;5.250;2022-12-11T08:06:58;1.30;99.90
16289;DHT22;26089;43.538;5.250;2022-12-11T08:09:25;1.40;99.90
16289;DHT22;26089;43.538;5.250;2022-12-11T08:11:52;1.50;99.90
16289;DHT22;26089;43.538;5.250;2022-12-11T08:14:19;2.40;99.90
16289;DHT22;26089;43.538;5.250;2022-12-11T08:16:46;2.00;99.90
16289;DHT22;26089;43.538;5.250;2022-12-11T08:19:15;0.90;99.90
16289;DHT22;26089;43.538;5.250;2022-12-11T08:21:42;1.10;99.90
16289;DHT22;26089;43.538;5.250;2022-12-11T08:24:09;1.60;99.90
16289;DHT22;26089;43.538;5.250;2022-12-11T08:26:37;1.70;99.90
16289;DHT22;26089;43.538;5.250;2022-12-11T08:29:04;1.90;99.90
16289;DHT22;26089;43.538;5.250;2022-12-11T08:31:31;1.70;99.90
16289;DHT22;26089;43.538;5.250;2022-12-11T08:33:58;1.80;99.90
16289;DHT22;26089;43.538;5.250;2022-12-11T08:36:26;1.90;99.90
16289;DHT22;26089;43.538;5.250;2022-12-11T08:38:54;1.80;99.90
16289;DHT22;26089;43.538;5.250;2022-12-11T08:41:22;3.20;99.90
16289;DHT22;26089;43.538;5.250;2022-12-11T08:43:50;2.00;99.90
16289;DHT22;26089;43.538;5.250;2022-12-11T08:46:20;2.60;99.90
16289;DHT22;26089;43.538;5.250;2022-12-11T08:48:49;2.50;99.90
16289;DHT22;26089;43.538;5.250;2022-12-11T08:51:18;2.10;99.90
16289;DHT22;26089;43.538;5.250;2022-12-11T08:53:47;2.50;99.90
16289;DHT22;26089;43.538;5.250;2022-12-11T08:56:16;2.60;99.90
16289;DHT22;26089;43.538;5.250;2022-12-11T08:58:44;2.70;99.90
16289;DHT22;26089;43.538;5.250;2022-12-11T09:01:14;3.50;99.90
16289;DHT22;26089;43.538;5.250;2022-12-11T09:03:41;2.80;99.90
16289;DHT22;26089;43.538;5.250;2022-12-11T09:06:10;2.90;99.90
16289;DHT22;26089;43.538;5.250;2022-12-11T09:08:38;2.90;99.90
16289;DHT22;26089;43.538;5.250;2022-12-11T09:11:08;3.00;99.90
16289;DHT22;26089;43.538;5.250;2022-12-11T09:13:35;3.60;99.90
16289;DHT22;26089;43.538;5.250;2022-12-11T09:16:03;3.00;99.90
16289;DHT22;26089;43.538;5.250;2022-12-11T09:18:31;3.40;99.90
16289;DHT22;26089;43.538;5.250;2022-12-11T09:20:59;3.10;99.90
16289;DHT22;26089;43.538;5.250;2022-12-11T09:23:26;3.10;99.90
16289;DHT22;26089;43.538;5.250;2022-12-11T09:25:54;3.10;99.90
16289;DHT22;26089;43.538;5.250;2022-12-11T09:28:22;4.20;99.90
16289;DHT22;26089;43.538;5.250;2022-12-11T09:30:50;3.10;99.90
16289;DHT22;26089;43.538;5.250;2022-12-11T09:33:17;3.40;99.90
16289;DHT22;26089;43.538;5.250;2022-12-11T09:35:44;3.10;99.90
16289;DHT22;26089;43.538;5.250;2022-12-11T09:38:11;3.30;99.90
16289;DHT22;26089;43.538;5.250;2022-12-11T09:40:39;3.40;99.90
16289;DHT22;26089;43.538;5.250;2022-12-11T09:43:14;3.60;99.90
16289;DHT22;26089;43.538;5.250;2022-12-11T09:45:46;3.40;99.90
16289;DHT22;26089;43.538;5.250;2022-12-11T09:48:18;3.20;99.90
16289;DHT22;26089;43.538;5.250;2022-12-11T09:50:48;4.30;99.90
16289;DHT22;26089;43.538;5.250;2022-12-11T09:53:20;3.60;99.90
16289;DHT22;26089;43.538;5.250;2022-12-11T09:55:54;4.20;99.90
16289;DHT22;26089;43.538;5.250;2022-12-11T09:58:26;3.50;99.90
16289;DHT22;26089;43.538;5.250;2022-12-11T10:01:04;3.50;99.90
16289;DHT22;26089;43.538;5.250;2022-12-11T10:03:56;4.00;99.90
16289;DHT22;26089;43.538;5.250;2022-12-11T10:06:30;3.50;99.90
16289;DHT22;26089;43.538;5.250;2022-12-11T10:09:05;3.10;99.90
16289;DHT22;26089;43.538;5.250;2022-12-11T10:11:46;3.60;99.90
16289;DHT22;26089;43.538;5.250;2022-12-11T10:14:23;3.70;99.90
16289;DHT22;26089;43.538;5.250;2022-12-11T10:16:56;3.60;99.90
16289;DHT22;26089;43.538;5.250;2022-12-11T10:19:27;3.90;99.90
16289;DHT22;26089;43.538;5.250;2022-12-11T10:21:55;3.90;99.90
16289;DHT22;26089;43.538;5.250;2022-12-11T10:24:28;3.90;99.90
16289;DHT22;26089;43.538;5.250;2022-12-11T10:27:14;3.90;99.90
16289;DHT22;26089;43.538;5.250;2022-12-11T10:29:44;3.80;99.90
16289;DHT22;26089;43.538;5.250;2022-12-11T10:32:20;3.80;99.90
16289;DHT22;26089;43.538;5.250;2022-12-11T10:34:50;4.90;99.90
16289;DHT22;26089;43.538;5.250;2022-12-11T10:37:20;4.20;99.90
16289;DHT22;26089;43.538;5.250;2022-12-11T10:39:47;4.40;99.90
16289;DHT22;26089;43.538;5.250;2022-12-11T10:42:17;3.90;99.90
16289;DHT22;26089;43.538;5.250;2022-12-11T10:44:55;4.30;99.90
16289;DHT22;26089;43.538;5.250;2022-12-11T10:47:24;4.40;99.90
16289;DHT22;26089;43.538;5.250;2022-12-11T10:49:53;4.80;99.90
16289;DHT22;26089;43.538;5.250;2022-12-11T10:52:23;4.40;99.90
16289;DHT22;26089;43.538;5.250;2022-12-11T10:54:56;4.30;99.90
16289;DHT22;26089;43.538;5.250;2022-12-11T10:57:28;4.20;99.90
16289;DHT22;26089;43.538;5.250;2022-12-11T10:59:57;4.40;99.90
16289;DHT22;26089;43.538;5.250;2022-12-11T11:02:28;4.40;99.90
16289;DHT22;26089;43.538;5.250;2022-12-11T11:04:57;4.30;99.90
16289;DHT22;26089;43.538;5.250;2022-12-11T11:07:26;4.50;99.90
16289;DHT22;26089;43.538;5.250;2022-12-11T11:10:04;4.50;99.90
16289;DHT22;26089;43.538;5.250;2022-12-11T11:12:37;4.40;99.90
16289;DHT22;26089;43.538;5.250;2022-12-11T11:15:06;4.20;99.90
16289;DHT22;26089;43.538;5.250;2022-12-11T11:17:43;4.80;99.90
16289;DHT22;26089;43.538;5.250;2022-12-11T11:20:13;4.90;99.90
16289;DHT22;26089;43.538;5.250;2022-12-11T11:22:44;5.00;99.90
16289;DHT22;26089;43.538;5.250;2022-12-11T11:25:16;5.20;99.90
16289;DHT22;26089;43.538;5.250;2022-12-11T11:27:47;5.50;99.90
16289;DHT22;26089;43.538;5.250;2022-12-11T11:30:18;6.00;99.90
16289;DHT22;26089;43.538;5.250;2022-12-11T11:32:49;6.20;99.90
16289;DHT22;26089;43.538;5.250;2022-12-11T11:35:20;6.50;99.90
16289;DHT22;26089;43.538;5.250;2022-12-11T11:37:59;7.00;99.90
16289;DHT22;26089;43.538;5.250;2022-12-11T11:40:29;7.50;99.90
16289;DHT22;26089;43.538;5.250;2022-12-11T11:43:05;7.90;99.90
16289;DHT22;26089;43.538;5.250;2022-12-11T11:45:38;8.30;99.90
16289;DHT22;26089;43.538;5.250;2022-12-11T11:48:17;8.70;99.90
16289;DHT22;26089;43.538;5.250;2022-12-11T11:50:49;8.60;99.90
16289;DHT22;26089;43.538;5.250;2022-12-11T11:53:21;7.90;99.90
16289;DHT22;26089;43.538;5.250;2022-12-11T11:55:57;8.00;99.90
16289;DHT22;26089;43.538;5.250;2022-12-11T11:58:32;7.80;99.90
16289;DHT22;26089;43.538;5.250;2022-12-11T12:01:02;7.60;99.90
16289;DHT22;26089;43.538;5.250;2022-12-11T12:03:31;7.30;99.90
16289;DHT22;26089;43.538;5.250;2022-12-11T12:06:06;7.50;99.90
16289;DHT22;26089;43.538;5.250;2022-12-11T12:08:41;7.70;99.90
16289;DHT22;26089;43.538;5.250;2022-12-11T12:11:17;7.80;99.90
16289;DHT22;26089;43.538;5.250;2022-12-11T12:13:54;7.50;99.90
16289;DHT22;26089;43.538;5.250;2022-12-11T12:16:32;8.00;99.90
16289;DHT22;26089;43.538;5.250;2022-12-11T12:19:11;8.60;99.90
16289;DHT22;26089;43.538;5.250;2022-12-11T12:21:44;8.40;99.90
16289;DHT22;26089;43.538;5.250;2022-12-11T12:24:19;8.70;99.90
16289;DHT22;26089;43.538;5.250;2022-12-11T12:26:54;8.50;99.90
16289;DHT22;26089;43.538;5.250;2022-12-11T12:29:41;7.70;99.90
16289;DHT22;26089;43.538;5.250;2022-12-11T12:32:17;7.50;99.90
16289;DHT22;26089;43.538;5.250;2022-12-11T12:34:54;7.10;99.90
16289;DHT22;26089;43.538;5.250;2022-12-11T12:37:36;6.90;99.90
16289;DHT22;26089;43.538;5.250;2022-12-11T12:40:15;6.60;99.90
16289;DHT22;26089;43.538;5.250;2022-12-11T12:42:49;6.80;99.90
16289;DHT22;26089;43.538;5.250;2022-12-11T12:45:25;6.80;99.90
16289;DHT22;26089;43.538;5.250;2022-12-11T12:47:53;6.60;99.90
16289;DHT22;26089;43.538;5.250;2022-12-11T12:50:24;6.60;99.90
16289;DHT22;26089;43.538;5.250;2022-12-11T12:52:53;6.70;99.90
16289;DHT22;26089;43.538;5.250;2022-12-11T12:55:23;7.20;99.90
16289;DHT22;26089;43.538;5.250;2022-12-11T12:57:53;7.80;99.90
16289;DHT22;26089;43.538;5.250;2022-12-11T13:00:30;8.10;99.90
16289;DHT22;26089;43.538;5.250;2022-12-11T13:02:59;8.60;99.90
16289;DHT22;26089;43.538;5.250;2022-12-11T13:05:31;8.20;99.90
16289;DHT22;26089;43.538;5.250;2022-12-11T13:08:00;8.60;99.90
16289;DHT22;26089;43.538;5.250;2022-12-11T13:10:31;8.80;99.90
16289;DHT22;26089;43.538;5.250;2022-12-11T13:12:59;9.10;99.90
16289;DHT22;26089;43.538;5.250;2022-12-11T13:15:36;9.00;99.90
16289;DHT22;26089;43.538;5.250;2022-12-11T13:18:30;9.40;99.90
16289;DHT22;26089;43.538;5.250;2022-12-11T13:20:59;10.00;99.90
16289;DHT22;26089;43.538;5.250;2022-12-11T13:23:28;10.10;99.90
16289;DHT22;26089;43.538;5.250;2022-12-11T13:25:57;10.50;99.90
16289;DHT22;26089;43.538;5.250;2022-12-11T13:28:27;10.70;99.90
16289;DHT22;26089;43.538;5.250;2022-12-11T13:30:58;10.80;99.90
16289;DHT22;26089;43.538;5.250;2022-12-11T13:33:26;11.10;99.90
16289;DHT22;26089;43.538;5.250;2022-12-11T13:39:01;10.70;99.90
16289;DHT22;26089;43.538;5.250;2022-12-11T13:41:31;10.20;99.90
16289;DHT22;26089;43.538;5.250;2022-12-11T13:44:00;10.20;99.90
16289;DHT22;26089;43.538;5.250;2022-12-11T13:46:30;10.40;99.90
16289;DHT22;26089;43.538;5.250;2022-12-11T13:49:02;10.40;99.90
16289;DHT22;26089;43.538;5.250;2022-12-11T13:51:30;10.30;99.90
16289;DHT22;26089;43.538;5.250;2022-12-11T13:54:11;9.90;99.90
16289;DHT22;26089;43.538;5.250;2022-12-11T13:56:39;9.70;99.90
16289;DHT22;26089;43.538;5.250;2022-12-11T13:59:19;9.70;99.90
16289;DHT22;26089;43.538;5.250;2022-12-11T14:01:46;9.70;99.90
16289;DHT22;26089;43.538;5.250;2022-12-11T14:04:17;9.50;99.90
16289;DHT22;26089;43.538;5.250;2022-12-11T14:06:46;9.60;99.90
16289;DHT22;26089;43.538;5.250;2022-12-11T14:09:17;9.30;99.90
16289;DHT22;26089;43.538;5.250;2022-12-11T14:11:46;9.50;99.90
16289;DHT22;26089;43.538;5.250;2022-12-11T14:14:19;9.00;99.90
16289;DHT22;26089;43.538;5.250;2022-12-11T14:16:47;8.60;99.90
16289;DHT22;26089;43.538;5.250;2022-12-11T14:19:18;8.40;99.90
16289;DHT22;26089;43.538;5.250;2022-12-11T14:21:55;8.50;99.90
16289;DHT22;26089;43.538;5.250;2022-12-11T14:24:23;8.40;99.90
16289;DHT22;26089;43.538;5.250;2022-12-11T14:26:51;8.30;99.90
16289;DHT22;26089;43.538;5.250;2022-12-11T14:29:27;8.20;99.90
16289;DHT22;26089;43.538;5.250;2022-12-11T14:31:58;8.00;99.90
16289;DHT22;26089;43.538;5.250;2022-12-11T14:34:30;7.90;99.90
16289;DHT22;26089;43.538;5.250;2022-12-11T14:36:58;7.80;99.90
16289;DHT22;26089;43.538;5.250;2022-12-11T14:39:31;7.70;99.90
16289;DHT22;26089;43.538;5.250;2022-12-11T14:42:02;7.50;99.90
16289;DHT22;26089;43.538;5.250;2022-12-11T14:44:35;7.40;99.90
16289;DHT22;26089;43.538;5.250;2022-12-11T14:47:10;7.30;99.90
16289;DHT22;26089;43.538;5.250;2022-12-11T14:49:45;7.20;99.90
16289;DHT22;26089;43.538;5.250;2022-12-11T14:52:16;7.10;99.90
16289;DHT22;26089;43.538;5.250;2022-12-11T14:54:49;6.90;99.90
16289;DHT22;26089;43.538;5.250;2022-12-11T14:57:19;6.80;99.90
16289;DHT22;26089;43.538;5.250;2022-12-11T14:59:48;6.70;99.90
16289;DHT22;26089;43.538;5.250;2022-12-11T15:02:26;6.70;99.90
16289;DHT22;26089;43.538;5.250;2022-12-11T15:05:15;6.50;99.90
16289;DHT22;26089;43.538;5.250;2022-12-11T15:07:53;6.50;99.90
16289;DHT22;26089;43.538;5.250;2022-12-11T15:10:24;6.20;99.90
16289;DHT22;26089;43.538;5.250;2022-12-11T15:12:53;6.40;99.90
16289;DHT22;26089;43.538;5.250;2022-12-11T15:15:20;6.30;99.90
16289;DHT22;26089;43.538;5.250;2022-12-11T15:17:48;6.20;99.90
16289;DHT22;26089;43.538;5.250;2022-12-11T15:20:22;6.10;99.90
16289;DHT22;26089;43.538;5.250;2022-12-11T15:22:50;6.00;99.90
16289;DHT22;26089;43.538;5.250;2022-12-11T15:25:20;5.80;99.90
16289;DHT22;26089;43.538;5.250;2022-12-11T15:27:51;5.70;99.90
16289;DHT22;26089;43.538;5.250;2022-12-11T15:30:27;5.50;99.90
16289;DHT22;26089;43.538;5.250;2022-12-11T15:33:18;5.50;99.90
16289;DHT22;26089;43.538;5.250;2022-12-11T15:35:58;5.30;99.90
16289;DHT22;26089;43.538;5.250;2022-12-11T15:38:28;5.20;99.90
16289;DHT22;26089;43.538;5.250;2022-12-11T15:40:56;5.00;99.90
16289;DHT22;26089;43.538;5.250;2022-12-11T15:43:25;4.80;99.90
16289;DHT22;26089;43.538;5.250;2022-12-11T15:45:52;4.60;99.90
16289;DHT22;26089;43.538;5.250;2022-12-11T15:48:19;4.50;99.90
16289;DHT22;26089;43.538;5.250;2022-12-11T15:50:46;4.40;99.90
16289;DHT22;26089;43.538;5.250;2022-12-11T15:53:13;4.20;99.90
16289;DHT22;26089;43.538;5.250;2022-12-11T15:55:40;4.10;99.90
16289;DHT22;26089;43.538;5.250;2022-12-11T15:58:13;4.10;99.90
16289;DHT22;26089;43.538;5.250;2022-12-11T16:00:41;3.80;99.90
16289;DHT22;26089;43.538;5.250;2022-12-11T16:03:11;3.70;99.90
16289;DHT22;26089;43.538;5.250;2022-12-11T16:05:39;3.70;99.90
16289;DHT22;26089;43.538;5.250;2022-12-11T16:08:06;3.60;99.90